Time;durP1;ratioP1;P1;durP2;ratioP2;P2;SDS_P1;SDS_P2;PMS_P1;PMS_P2;Temp;Humidity;BMP_temperature;BMP_pressure;BME280_temperature;BME280_humidity;BME280_pressure;Samples;Min_cycle;Max_cycle;Signal;HPM_P1;HPM_P2
2022/12/04 00:01:32;;;;;;;145.93;60.80;;;;;;;;;;762974;183;918795;-63
2022/12/04 00:03:58;;;;;;;133.10;58.50;;;;;;;;;;768629;180;919176;-61
2022/12/04 00:06:24;;;;;;;142.53;59.77;;;;;;;;;;763719;183;919245;-60
2022/12/04 00:08:50;;;;;;;120.57;58.40;;;;;;;;;;765521;181;918898;-63
2022/12/04 00:11:16;;;;;;;127.72;60.97;;;;;;;;;;759116;183;919296;-61
2022/12/04 00:13:42;;;;;;;132.50;58.23;;;;;;;;;;762471;184;918151;-62
2022/12/04 00:16:08;;;;;;;104.20;50.33;;;;;;;;;;760149;184;919581;-63
2022/12/04 00:18:34;;;;;;;112.40;48.80;;;;;;;;;;749510;183;919229;-61
2022/12/04 00:21:00;;;;;;;104.30;46.67;;;;;;;;;;756845;184;917221;-64
2022/12/04 00:23:26;;;;;;;102.60;46.27;;;;;;;;;;769298;180;916721;-63
2022/12/04 00:25:52;;;;;;;103.72;47.45;;;;;;;;;;770671;181;870458;-61
2022/12/04 00:28:18;;;;;;;100.13;46.90;;;;;;;;;;773027;180;911076;-61
2022/12/04 00:30:43;;;;;;;95.47;47.47;;;;;;;;;;760892;183;631159;-63
2022/12/04 00:33:09;;;;;;;96.17;45.60;;;;;;;;;;764534;181;919685;-61
2022/12/04 00:35:35;;;;;;;98.50;46.00;;;;;;;;;;757522;183;922187;-61
2022/12/04 00:38:01;;;;;;;85.47;45.67;;;;;;;;;;772214;181;918909;-61
2022/12/04 00:40:27;;;;;;;98.00;47.53;;;;;;;;;;767626;180;916771;-61
2022/12/04 00:42:53;;;;;;;93.37;42.57;;;;;;;;;;768760;180;815408;-64
2022/12/04 00:45:18;;;;;;;108.57;48.80;;;;;;;;;;767441;180;627497;-63
2022/12/04 00:47:44;;;;;;;97.97;44.83;;;;;;;;;;762020;183;627365;-63
2022/12/04 00:50:10;;;;;;;100.15;48.33;;;;;;;;;;762178;180;918732;-63
2022/12/04 00:52:36;;;;;;;103.47;48.60;;;;;;;;;;747697;185;616856;-61
2022/12/04 00:55:02;;;;;;;104.63;47.53;;;;;;;;;;778336;180;913807;-61
2022/12/04 00:57:28;;;;;;;102.93;48.77;;;;;;;;;;772027;180;817440;-63
2022/12/04 00:59:54;;;;;;;115.83;46.13;;;;;;;;;;766025;180;918529;-61
2022/12/04 01:02:19;;;;;;;125.43;53.10;;;;;;;;;;775691;179;817388;-61
2022/12/04 01:04:45;;;;;;;122.30;55.70;;;;;;;;;;759944;183;919547;-61
2022/12/04 01:07:11;;;;;;;119.27;53.00;;;;;;;;;;752127;181;819249;-63
2022/12/04 01:09:37;;;;;;;140.43;56.37;;;;;;;;;;755972;181;919204;-63
2022/12/04 01:12:03;;;;;;;138.47;57.57;;;;;;;;;;753273;184;920524;-61
2022/12/04 01:14:29;;;;;;;140.23;58.07;;;;;;;;;;760376;183;916426;-61
2022/12/04 01:16:55;;;;;;;120.25;48.42;;;;;;;;;;759221;184;914905;-63
2022/12/04 01:19:21;;;;;;;132.73;57.07;;;;;;;;;;774873;182;920070;-63
2022/12/04 01:21:47;;;;;;;146.10;61.43;;;;;;;;;;756406;183;922169;-63
2022/12/04 01:24:12;;;;;;;122.10;55.00;;;;;;;;;;761531;180;919255;-63
2022/12/04 01:26:38;;;;;;;125.23;51.90;;;;;;;;;;766659;179;919118;-60
2022/12/04 01:29:04;;;;;;;132.47;57.20;;;;;;;;;;754925;183;919115;-63
2022/12/04 01:31:30;;;;;;;145.40;58.20;;;;;;;;;;757292;183;917831;-61
2022/12/04 01:33:56;;;;;;;116.37;51.33;;;;;;;;;;758255;183;918671;-60
2022/12/04 01:36:22;;;;;;;104.80;49.90;;;;;;;;;;765678;179;920003;-63
2022/12/04 01:38:47;;;;;;;122.40;52.77;;;;;;;;;;762248;179;919603;-61
2022/12/04 01:41:13;;;;;;;122.33;51.93;;;;;;;;;;762622;183;914849;-61
2022/12/04 01:43:39;;;;;;;113.53;50.60;;;;;;;;;;767933;183;919238;-64
2022/12/04 01:46:05;;;;;;;116.97;53.53;;;;;;;;;;759507;183;919438;-63
2022/12/04 01:48:32;;;;;;;123.87;52.20;;;;;;;;;;764167;183;918537;-61
2022/12/04 01:50:59;;;;;;;120.50;51.73;;;;;;;;;;760231;183;919857;-61
2022/12/04 01:53:24;;;;;;;98.45;49.60;;;;;;;;;;746548;188;918741;-61
2022/12/04 01:55:50;;;;;;;109.47;49.60;;;;;;;;;;753774;183;872946;-63
2022/12/04 01:58:16;;;;;;;119.50;52.27;;;;;;;;;;763731;183;912541;-61
2022/12/04 02:00:42;;;;;;;108.57;49.97;;;;;;;;;;754203;183;923544;-61
2022/12/04 02:03:08;;;;;;;118.10;51.70;;;;;;;;;;748540;184;917295;-61
2022/12/04 02:05:34;;;;;;;99.93;49.03;;;;;;;;;;754417;184;919666;-63
2022/12/04 02:07:59;;;;;;;122.53;51.10;;;;;;;;;;741785;187;919068;-61
2022/12/04 02:10:26;;;;;;;107.00;50.57;;;;;;;;;;739162;187;919457;-63
2022/12/04 02:12:54;;;;;;;92.43;44.10;;;;;;;;;;759803;183;916644;-61
2022/12/04 02:15:22;;;;;;;88.47;45.07;;;;;;;;;;767775;183;918902;-64
2022/12/04 02:18:03;;;;;;;101.33;44.03;;;;;;;;;;758315;183;917474;-59
2022/12/04 02:20:36;;;;;;;103.77;45.30;;;;;;;;;;760776;183;911085;-60
2022/12/04 02:23:07;;;;;;;100.27;49.17;;;;;;;;;;758491;182;912036;-64
2022/12/04 02:25:38;;;;;;;96.70;45.47;;;;;;;;;;745873;187;1021754;-61
2022/12/04 02:28:04;;;;;;;115.50;53.40;;;;;;;;;;762215;183;921452;-63
2022/12/04 02:30:30;;;;;;;107.37;50.10;;;;;;;;;;752263;184;919017;-63
2022/12/04 02:33:11;;;;;;;121.63;50.43;;;;;;;;;;762788;182;918504;-63
2022/12/04 02:35:39;;;;;;;100.40;45.37;;;;;;;;;;761484;179;1015386;-62
2022/12/04 02:38:05;;;;;;;99.80;43.38;;;;;;;;;;758802;183;918183;-62
2022/12/04 02:40:31;;;;;;;102.80;48.43;;;;;;;;;;762277;184;917868;-64
2022/12/04 02:42:57;;;;;;;128.25;53.28;;;;;;;;;;757751;181;920891;-65
2022/12/04 02:45:23;;;;;;;148.93;58.50;;;;;;;;;;762822;183;918636;-63
2022/12/04 02:47:49;;;;;;;140.70;58.77;;;;;;;;;;769217;183;919098;-66
2022/12/04 02:50:15;;;;;;;135.37;56.20;;;;;;;;;;761758;183;918037;-64
2022/12/04 02:52:41;;;;;;;123.37;53.10;;;;;;;;;;772030;179;914490;-66
2022/12/04 02:55:08;;;;;;;124.87;54.30;;;;;;;;;;764573;180;920169;-65
2022/12/04 02:57:34;;;;;;;128.47;58.17;;;;;;;;;;744971;182;918242;-64
2022/12/04 03:00:00;;;;;;;139.70;59.22;;;;;;;;;;762617;179;917886;-64
2022/12/04 03:02:44;;;;;;;143.73;60.97;;;;;;;;;;775645;179;920450;-66
2022/12/04 03:05:10;;;;;;;152.80;62.60;;;;;;;;;;763543;180;918540;-66
2022/12/04 03:07:36;;;;;;;140.87;67.03;;;;;;;;;;763232;183;918333;-64
2022/12/04 03:10:02;;;;;;;162.15;61.50;;;;;;;;;;754792;183;919627;-64
2022/12/04 03:12:28;;;;;;;136.87;59.47;;;;;;;;;;753817;184;919051;-64
2022/12/04 03:14:54;;;;;;;119.67;53.40;;;;;;;;;;765064;183;814521;-64
2022/12/04 03:17:22;;;;;;;117.53;49.17;;;;;;;;;;764338;183;820357;-64
2022/12/04 03:19:48;;;;;;;116.73;54.30;;;;;;;;;;761725;183;918994;-65
2022/12/04 03:22:14;;;;;;;107.90;52.87;;;;;;;;;;774716;180;816340;-64
2022/12/04 03:24:40;;;;;;;132.37;55.80;;;;;;;;;;759411;183;918774;-64
2022/12/04 03:27:09;;;;;;;130.23;57.60;;;;;;;;;;758545;183;919084;-64
2022/12/04 03:29:40;;;;;;;137.65;54.78;;;;;;;;;;758176;183;914204;-63
2022/12/04 03:32:07;;;;;;;122.47;56.40;;;;;;;;;;762971;184;918012;-65
2022/12/04 03:34:33;;;;;;;120.20;54.97;;;;;;;;;;762116;183;918953;-63
2022/12/04 03:36:59;;;;;;;132.50;54.50;;;;;;;;;;764798;180;919211;-63
2022/12/04 03:39:26;;;;;;;112.57;52.90;;;;;;;;;;769096;180;920238;-63
2022/12/04 03:41:53;;;;;;;145.70;61.70;;;;;;;;;;764078;183;917795;-63
2022/12/04 03:44:38;;;;;;;131.68;57.67;;;;;;;;;;759464;183;919099;-62
2022/12/04 03:47:08;;;;;;;131.30;54.07;;;;;;;;;;757234;180;919024;-63
2022/12/04 03:49:37;;;;;;;133.07;53.00;;;;;;;;;;751976;180;922931;-61
2022/12/04 03:52:04;;;;;;;134.97;54.03;;;;;;;;;;769940;180;919023;-61
2022/12/04 03:54:30;;;;;;;147.97;62.20;;;;;;;;;;771440;180;920891;-62
2022/12/04 03:56:59;;;;;;;138.60;62.87;;;;;;;;;;751057;184;919493;-59
2022/12/04 03:59:25;;;;;;;164.82;65.25;;;;;;;;;;755118;183;920434;-63
2022/12/04 04:01:51;;;;;;;148.47;64.10;;;;;;;;;;762326;184;919181;-63
2022/12/04 04:04:17;;;;;;;146.87;58.63;;;;;;;;;;763513;183;888735;-61
2022/12/04 04:06:47;;;;;;;173.83;70.60;;;;;;;;;;761938;183;916082;-60
2022/12/04 04:09:13;;;;;;;144.17;63.30;;;;;;;;;;769816;180;912607;-61
2022/12/04 04:11:39;;;;;;;159.33;68.07;;;;;;;;;;762221;183;914841;-63
2022/12/04 04:24:13;;;;;;;150.20;65.10;;;;;;;;;;752914;187;918347;-61
2022/12/04 04:26:39;;;;;;;140.80;62.20;;;;;;;;;;756307;183;916742;-60
2022/12/04 04:29:05;;;;;;;150.47;63.27;;;;;;;;;;770000;179;919334;-62
2022/12/04 04:31:32;;;;;;;162.53;67.10;;;;;;;;;;780076;179;1021066;-61
2022/12/04 04:34:02;;;;;;;144.40;58.97;;;;;;;;;;757671;180;918165;-61
2022/12/04 04:36:29;;;;;;;146.47;61.43;;;;;;;;;;772360;180;918615;-60
2022/12/04 04:38:55;;;;;;;144.93;60.37;;;;;;;;;;759983;183;919023;-60
2022/12/04 04:41:23;;;;;;;150.67;61.43;;;;;;;;;;776968;179;917252;-61
2022/12/04 04:43:59;;;;;;;134.73;60.40;;;;;;;;;;764427;179;932011;-61
2022/12/04 04:46:27;;;;;;;151.17;58.93;;;;;;;;;;761576;182;817584;-59
2022/12/04 04:48:53;;;;;;;148.80;59.10;;;;;;;;;;759448;184;819356;-59
2022/12/04 04:51:19;;;;;;;156.90;60.27;;;;;;;;;;766145;182;920200;-61
2022/12/04 04:53:45;;;;;;;160.10;68.60;;;;;;;;;;759028;183;845397;-61
2022/12/04 04:56:11;;;;;;;142.80;59.43;;;;;;;;;;770555;180;817135;-60
2022/12/04 04:58:37;;;;;;;157.20;62.80;;;;;;;;;;773929;179;841257;-59
2022/12/04 05:01:02;;;;;;;118.43;51.60;;;;;;;;;;762840;182;919081;-59
2022/12/04 05:03:28;;;;;;;169.97;68.57;;;;;;;;;;755272;184;917648;-61
2022/12/04 05:05:54;;;;;;;127.00;53.80;;;;;;;;;;773609;177;908407;-62
2022/12/04 05:08:20;;;;;;;158.13;60.17;;;;;;;;;;749559;184;918806;-63
2022/12/04 05:10:46;;;;;;;133.40;60.40;;;;;;;;;;762331;182;816964;-61
2022/12/04 05:13:12;;;;;;;147.70;63.20;;;;;;;;;;753849;184;868935;-61
2022/12/04 05:15:37;;;;;;;158.80;62.40;;;;;;;;;;765644;183;915636;-63
2022/12/04 05:18:04;;;;;;;130.30;57.87;;;;;;;;;;746666;184;934483;-60
2022/12/04 05:20:29;;;;;;;142.13;62.23;;;;;;;;;;750846;184;1022014;-62
2022/12/04 05:22:55;;;;;;;137.70;48.30;;;;;;;;;;752493;183;916642;-59
2022/12/04 05:25:21;;;;;;;106.03;46.13;;;;;;;;;;774340;179;917581;-62
2022/12/04 05:27:47;;;;;;;151.03;58.90;;;;;;;;;;768074;180;897842;-61
2022/12/04 05:30:13;;;;;;;122.07;48.60;;;;;;;;;;763474;180;919088;-62
2022/12/04 05:32:39;;;;;;;165.67;68.20;;;;;;;;;;758102;184;922140;-62
2022/12/04 05:35:04;;;;;;;157.20;68.07;;;;;;;;;;760468;181;919323;-62
2022/12/04 05:37:30;;;;;;;164.83;66.40;;;;;;;;;;765885;180;919387;-62
2022/12/04 05:39:56;;;;;;;167.07;67.30;;;;;;;;;;765121;182;919063;-62
2022/12/04 05:42:22;;;;;;;148.47;60.70;;;;;;;;;;743808;185;919614;-60
2022/12/04 05:44:48;;;;;;;149.45;65.25;;;;;;;;;;757834;184;918963;-61
2022/12/04 05:47:14;;;;;;;152.50;65.50;;;;;;;;;;763262;184;918630;-62
2022/12/04 05:49:40;;;;;;;192.23;85.90;;;;;;;;;;751742;183;919063;-62
2022/12/04 05:52:06;;;;;;;168.82;74.28;;;;;;;;;;754663;184;919332;-63
2022/12/04 05:54:31;;;;;;;177.77;77.57;;;;;;;;;;760258;184;918651;-64
2022/12/04 05:56:57;;;;;;;174.87;71.60;;;;;;;;;;760108;181;920209;-59
2022/12/04 05:59:23;;;;;;;176.00;71.87;;;;;;;;;;750741;183;919218;-61
2022/12/04 06:01:49;;;;;;;171.37;71.70;;;;;;;;;;753072;184;938397;-59
2022/12/04 06:04:15;;;;;;;178.17;75.87;;;;;;;;;;757977;184;936059;-62
2022/12/04 06:06:41;;;;;;;165.10;66.00;;;;;;;;;;751535;183;926027;-61
2022/12/04 06:09:06;;;;;;;197.97;66.77;;;;;;;;;;747799;184;818214;-61
2022/12/04 06:11:32;;;;;;;151.43;68.53;;;;;;;;;;781436;179;886329;-63
2022/12/04 06:13:58;;;;;;;166.00;71.03;;;;;;;;;;773562;179;812530;-63
2022/12/04 06:16:26;;;;;;;174.07;77.47;;;;;;;;;;771683;180;1020964;-65
2022/12/04 06:18:52;;;;;;;193.23;73.23;;;;;;;;;;775055;179;839173;-61
2022/12/04 06:21:17;;;;;;;168.23;74.27;;;;;;;;;;774403;179;914473;-61
2022/12/04 06:23:43;;;;;;;208.10;79.10;;;;;;;;;;766269;179;940160;-60
2022/12/04 06:26:09;;;;;;;188.40;83.87;;;;;;;;;;765855;179;939379;-62
2022/12/04 06:28:35;;;;;;;167.13;66.03;;;;;;;;;;760011;183;919776;-60
2022/12/04 06:31:02;;;;;;;198.13;85.83;;;;;;;;;;763385;183;919673;-62
2022/12/04 06:33:27;;;;;;;149.80;65.47;;;;;;;;;;752369;183;918193;-61
2022/12/04 06:35:57;;;;;;;160.73;65.70;;;;;;;;;;774784;180;918432;-61
2022/12/04 06:38:23;;;;;;;162.60;67.07;;;;;;;;;;769261;180;919063;-63
2022/12/04 06:40:49;;;;;;;153.50;63.55;;;;;;;;;;758414;180;918617;-60
2022/12/04 06:43:15;;;;;;;167.97;63.60;;;;;;;;;;751253;183;917771;-59
2022/12/04 06:45:41;;;;;;;146.33;64.00;;;;;;;;;;761952;184;816423;-62
2022/12/04 06:48:06;;;;;;;132.10;55.87;;;;;;;;;;765309;179;921110;-62
2022/12/04 06:50:32;;;;;;;153.63;66.97;;;;;;;;;;771714;180;941928;-62
2022/12/04 06:52:58;;;;;;;152.80;60.70;;;;;;;;;;770327;180;817004;-60
2022/12/04 06:55:24;;;;;;;198.68;89.85;;;;;;;;;;766317;180;820987;-60
2022/12/04 06:57:50;;;;;;;156.77;67.07;;;;;;;;;;756295;180;915468;-62
2022/12/04 07:00:16;;;;;;;102.63;42.77;;;;;;;;;;763096;183;719742;-59
2022/12/04 07:02:42;;;;;;;96.70;40.23;;;;;;;;;;754883;183;921450;-61
2022/12/04 07:05:08;;;;;;;168.87;67.90;;;;;;;;;;771061;179;915553;-61
2022/12/04 07:07:34;;;;;;;186.23;70.70;;;;;;;;;;766240;180;918918;-61
2022/12/04 07:10:00;;;;;;;158.70;70.43;;;;;;;;;;759528;183;811007;-61
2022/12/04 07:12:26;;;;;;;215.10;81.07;;;;;;;;;;760874;183;815877;-60
2022/12/04 07:14:52;;;;;;;181.63;71.83;;;;;;;;;;760204;183;918255;-63
2022/12/04 07:17:18;;;;;;;364.90;162.73;;;;;;;;;;770677;179;815534;-62
2022/12/04 07:19:44;;;;;;;412.60;183.55;;;;;;;;;;770002;179;919667;-61
2022/12/04 07:22:10;;;;;;;156.27;68.67;;;;;;;;;;754599;183;919029;-60
2022/12/04 07:24:36;;;;;;;279.77;132.93;;;;;;;;;;765068;182;869480;-60
2022/12/04 07:27:02;;;;;;;120.23;56.97;;;;;;;;;;761852;183;892771;-62
2022/12/04 07:29:28;;;;;;;136.87;56.23;;;;;;;;;;758993;182;853466;-64
2022/12/04 07:31:54;;;;;;;88.17;39.77;;;;;;;;;;761754;182;918874;-61
2022/12/04 07:34:19;;;;;;;125.97;50.97;;;;;;;;;;765735;182;915836;-62
2022/12/04 07:36:45;;;;;;;102.57;41.90;;;;;;;;;;757886;182;917828;-60
2022/12/04 07:39:11;;;;;;;90.37;38.57;;;;;;;;;;760403;182;920664;-60
2022/12/04 07:41:37;;;;;;;190.63;70.70;;;;;;;;;;762229;183;919590;-61
2022/12/04 07:44:03;;;;;;;118.70;51.08;;;;;;;;;;757026;183;924819;-61
2022/12/04 07:46:29;;;;;;;108.83;46.57;;;;;;;;;;768917;179;915311;-62
2022/12/04 07:48:55;;;;;;;163.07;71.47;;;;;;;;;;766492;179;867836;-61
2022/12/04 07:51:20;;;;;;;188.57;78.30;;;;;;;;;;773263;179;919247;-63
2022/12/04 07:53:46;;;;;;;187.97;79.47;;;;;;;;;;764215;180;915219;-64
2022/12/04 07:56:12;;;;;;;165.47;74.37;;;;;;;;;;774589;180;817702;-64
2022/12/04 07:58:38;;;;;;;163.03;62.37;;;;;;;;;;761822;180;916880;-61
2022/12/04 08:01:07;;;;;;;155.40;62.47;;;;;;;;;;765480;180;846503;-65
2022/12/04 08:03:33;;;;;;;136.57;59.10;;;;;;;;;;757282;183;918675;-64
2022/12/04 08:05:59;;;;;;;131.37;56.07;;;;;;;;;;771257;179;630391;-64
2022/12/04 08:08:25;;;;;;;144.43;63.07;;;;;;;;;;763916;180;645739;-64
2022/12/04 08:10:51;;;;;;;154.37;69.53;;;;;;;;;;766377;180;626839;-64
2022/12/04 08:13:17;;;;;;;135.50;62.60;;;;;;;;;;770505;179;629980;-66
2022/12/04 08:15:42;;;;;;;145.90;61.80;;;;;;;;;;772470;179;621908;-63
2022/12/04 08:18:08;;;;;;;135.43;67.30;;;;;;;;;;766204;180;629441;-64
2022/12/04 08:20:35;;;;;;;162.63;67.03;;;;;;;;;;729553;192;816630;-64
2022/12/04 08:23:01;;;;;;;141.17;57.33;;;;;;;;;;767214;183;811970;-60
2022/12/04 08:25:27;;;;;;;141.60;61.63;;;;;;;;;;759274;183;812372;-63
2022/12/04 08:27:53;;;;;;;117.67;55.23;;;;;;;;;;772557;180;907272;-61
2022/12/04 08:30:19;;;;;;;118.87;50.57;;;;;;;;;;761346;183;907125;-61
2022/12/04 08:32:45;;;;;;;129.73;54.00;;;;;;;;;;761107;183;918810;-61
2022/12/04 08:35:11;;;;;;;134.97;56.83;;;;;;;;;;749815;183;918928;-63
2022/12/04 08:37:37;;;;;;;144.87;57.77;;;;;;;;;;757474;184;916400;-62
2022/12/04 08:40:05;;;;;;;109.87;49.50;;;;;;;;;;752747;182;919357;-62
2022/12/04 08:42:31;;;;;;;109.60;49.87;;;;;;;;;;755899;179;920279;-63
2022/12/04 08:44:56;;;;;;;134.83;58.27;;;;;;;;;;755979;180;918961;-62
2022/12/04 08:47:22;;;;;;;157.17;68.13;;;;;;;;;;745492;185;918476;-63
2022/12/04 08:49:48;;;;;;;130.23;58.27;;;;;;;;;;753155;184;918081;-62
2022/12/04 08:52:14;;;;;;;138.10;65.27;;;;;;;;;;754150;184;914998;-62
2022/12/04 08:54:40;;;;;;;145.55;65.80;;;;;;;;;;779993;180;818228;-63
2022/12/04 08:57:06;;;;;;;124.77;55.70;;;;;;;;;;763345;181;922233;-60
2022/12/04 08:59:32;;;;;;;163.10;70.17;;;;;;;;;;764090;180;817944;-60
2022/12/04 09:01:57;;;;;;;114.62;55.12;;;;;;;;;;758418;184;919186;-62
2022/12/04 09:04:23;;;;;;;128.30;51.10;;;;;;;;;;761922;181;919170;-61
2022/12/04 09:06:49;;;;;;;73.30;37.03;;;;;;;;;;763038;180;915005;-60
2022/12/04 09:09:15;;;;;;;110.30;53.27;;;;;;;;;;759550;180;895361;-63
2022/12/04 09:11:41;;;;;;;102.30;54.53;;;;;;;;;;772467;180;815018;-60
2022/12/04 09:14:08;;;;;;;137.37;61.60;;;;;;;;;;756918;183;918569;-62
2022/12/04 09:16:35;;;;;;;119.17;53.50;;;;;;;;;;759776;183;919249;-62
2022/12/04 09:19:01;;;;;;;131.90;69.30;;;;;;;;;;767613;179;919208;-60
2022/12/04 09:21:27;;;;;;;114.93;59.83;;;;;;;;;;761105;182;918749;-59
2022/12/04 09:23:53;;;;;;;113.67;49.60;;;;;;;;;;759455;183;912623;-60
2022/12/04 09:26:20;;;;;;;127.80;59.20;;;;;;;;;;765674;183;722712;-60
2022/12/04 09:28:46;;;;;;;116.80;55.70;;;;;;;;;;755305;183;919397;-60
2022/12/04 09:31:12;;;;;;;110.90;54.63;;;;;;;;;;770887;180;914789;-63
2022/12/04 09:33:38;;;;;;;128.13;61.60;;;;;;;;;;767453;180;902483;-63
2022/12/04 09:36:04;;;;;;;109.27;54.77;;;;;;;;;;764309;180;916361;-59
2022/12/04 09:38:29;;;;;;;126.93;59.50;;;;;;;;;;767352;179;818385;-62
2022/12/04 09:41:01;;;;;;;121.82;60.55;;;;;;;;;;768227;179;940961;-60
2022/12/04 09:43:31;;;;;;;129.70;68.20;;;;;;;;;;766567;180;918298;-60
2022/12/04 09:45:57;;;;;;;127.67;61.90;;;;;;;;;;776881;179;919856;-64
2022/12/04 09:48:23;;;;;;;113.60;62.20;;;;;;;;;;767208;180;940754;-62
2022/12/04 09:50:49;;;;;;;106.83;54.17;;;;;;;;;;766244;180;918007;-62
2022/12/04 09:53:16;;;;;;;123.80;58.53;;;;;;;;;;761706;182;920644;-60
2022/12/04 09:55:42;;;;;;;119.70;58.40;;;;;;;;;;759603;182;859700;-59
2022/12/04 09:58:09;;;;;;;108.80;53.90;;;;;;;;;;761900;182;925366;-63
2022/12/04 10:00:35;;;;;;;118.80;56.07;;;;;;;;;;778338;179;816919;-60
2022/12/04 10:03:02;;;;;;;109.83;57.20;;;;;;;;;;758204;183;915125;-59
2022/12/04 10:05:28;;;;;;;106.67;51.83;;;;;;;;;;760083;183;919244;-60
2022/12/04 10:08:09;;;;;;;152.57;70.20;;;;;;;;;;762064;183;625895;-62
2022/12/04 10:10:35;;;;;;;109.30;61.70;;;;;;;;;;767264;183;623547;-64
2022/12/04 10:13:05;;;;;;;129.57;61.47;;;;;;;;;;768692;183;808214;-60
2022/12/04 10:15:32;;;;;;;130.80;67.17;;;;;;;;;;759860;181;660673;-62
2022/12/04 10:18:04;;;;;;;136.27;71.77;;;;;;;;;;750778;185;922815;-60
2022/12/04 10:20:36;;;;;;;118.67;54.87;;;;;;;;;;761684;182;819135;-60
2022/12/04 10:23:17;;;;;;;114.97;54.77;;;;;;;;;;767520;180;816075;-62
2022/12/04 10:25:42;;;;;;;111.43;55.73;;;;;;;;;;752432;183;806041;-61
2022/12/04 10:28:25;;;;;;;122.83;60.40;;;;;;;;;;746640;184;918135;-63
2022/12/04 10:30:51;;;;;;;116.93;62.50;;;;;;;;;;749606;184;927179;-59
2022/12/04 10:33:18;;;;;;;118.73;58.53;;;;;;;;;;769539;180;920745;-59
2022/12/04 10:35:44;;;;;;;85.73;50.70;;;;;;;;;;765049;183;915172;-59
2022/12/04 10:38:10;;;;;;;132.43;62.57;;;;;;;;;;767087;180;919325;-60
2022/12/04 10:40:36;;;;;;;123.80;57.17;;;;;;;;;;742633;183;919745;-62
2022/12/04 10:43:02;;;;;;;116.37;56.20;;;;;;;;;;758384;183;918883;-60
2022/12/04 10:45:29;;;;;;;101.90;54.27;;;;;;;;;;762136;183;918865;-60
2022/12/04 10:47:58;;;;;;;104.20;53.97;;;;;;;;;;745397;185;1021789;-60
2022/12/04 10:50:24;;;;;;;96.77;52.13;;;;;;;;;;747901;184;869591;-60
2022/12/04 10:52:51;;;;;;;96.17;53.23;;;;;;;;;;752203;184;919625;-63
2022/12/04 10:55:23;;;;;;;84.80;45.03;;;;;;;;;;754853;183;920508;-59
2022/12/04 10:57:49;;;;;;;107.17;55.37;;;;;;;;;;762825;182;812543;-61
2022/12/04 11:00:21;;;;;;;99.30;50.33;;;;;;;;;;750257;184;816979;-62
2022/12/04 11:02:48;;;;;;;79.30;43.50;;;;;;;;;;754376;184;910900;-62
2022/12/04 11:05:19;;;;;;;79.80;43.07;;;;;;;;;;755990;182;915738;-59
2022/12/04 11:07:45;;;;;;;87.27;45.47;;;;;;;;;;761621;182;917835;-64
2022/12/04 11:10:17;;;;;;;101.40;53.00;;;;;;;;;;774815;179;829995;-61
2022/12/04 11:13:00;;;;;;;93.85;47.97;;;;;;;;;;757377;182;920900;-62
2022/12/04 11:15:26;;;;;;;93.20;48.77;;;;;;;;;;757728;183;820396;-59
2022/12/04 11:17:52;;;;;;;88.07;50.07;;;;;;;;;;768078;180;920126;-59
2022/12/04 11:20:19;;;;;;;99.93;49.03;;;;;;;;;;756093;184;919058;-62
2022/12/04 11:22:46;;;;;;;94.43;50.30;;;;;;;;;;748830;184;919515;-62
2022/12/04 11:25:13;;;;;;;105.73;57.67;;;;;;;;;;758596;183;915476;-61
2022/12/04 11:27:39;;;;;;;123.30;58.93;;;;;;;;;;750903;184;919819;-63
2022/12/04 11:30:07;;;;;;;107.13;58.83;;;;;;;;;;753140;184;919457;-61
2022/12/04 11:32:34;;;;;;;176.87;86.28;;;;;;;;;;764855;183;918422;-59
2022/12/04 11:35:00;;;;;;;174.20;79.50;;;;;;;;;;765484;180;912025;-59
2022/12/04 11:37:27;;;;;;;201.83;100.10;;;;;;;;;;756700;183;899644;-60
2022/12/04 11:39:53;;;;;;;189.47;90.63;;;;;;;;;;760739;183;919096;-60
2022/12/04 11:42:19;;;;;;;264.70;125.73;;;;;;;;;;764853;180;919673;-59
2022/12/04 11:44:51;;;;;;;376.60;174.10;;;;;;;;;;762409;180;915336;-59
2022/12/04 11:47:25;;;;;;;297.93;152.50;;;;;;;;;;752973;184;918686;-60
2022/12/04 11:49:59;;;;;;;185.23;97.65;;;;;;;;;;754250;183;1022383;-59
2022/12/04 11:52:42;;;;;;;107.43;58.00;;;;;;;;;;765184;179;919446;-60
2022/12/04 11:55:14;;;;;;;278.13;133.80;;;;;;;;;;773603;179;920438;-60
2022/12/04 11:57:47;;;;;;;157.40;81.33;;;;;;;;;;763238;182;819386;-60
2022/12/04 12:00:16;;;;;;;81.70;47.17;;;;;;;;;;761161;183;810847;-61
2022/12/04 12:02:43;;;;;;;146.07;82.97;;;;;;;;;;759830;183;918431;-62
2022/12/04 12:05:28;;;;;;;114.57;66.30;;;;;;;;;;758965;183;919457;-63
2022/12/04 12:07:56;;;;;;;116.73;66.83;;;;;;;;;;754787;184;925075;-63
2022/12/04 12:10:42;;;;;;;90.40;48.70;;;;;;;;;;762215;183;881298;-63
2022/12/04 12:13:19;;;;;;;104.27;55.53;;;;;;;;;;738969;187;918171;-62
2022/12/04 12:15:52;;;;;;;114.80;55.30;;;;;;;;;;743823;186;816698;-64
2022/12/04 12:18:18;;;;;;;108.43;57.30;;;;;;;;;;739501;189;917751;-63
2022/12/04 12:20:47;;;;;;;114.40;57.80;;;;;;;;;;749901;183;919842;-59
2022/12/04 12:23:29;;;;;;;88.97;48.80;;;;;;;;;;758782;183;814196;-63
2022/12/04 12:25:57;;;;;;;115.53;59.40;;;;;;;;;;761878;183;918751;-63
2022/12/04 12:28:28;;;;;;;117.43;62.30;;;;;;;;;;756863;183;918451;-62
2022/12/04 12:31:12;;;;;;;123.83;69.30;;;;;;;;;;770674;183;915782;-62
2022/12/04 12:33:39;;;;;;;108.53;58.23;;;;;;;;;;762333;184;924793;-65
2022/12/04 12:36:05;;;;;;;95.23;53.00;;;;;;;;;;752948;184;920841;-60
2022/12/04 12:38:31;;;;;;;90.90;50.33;;;;;;;;;;774495;180;922300;-60
2022/12/04 12:40:58;;;;;;;117.60;61.97;;;;;;;;;;756789;183;920570;-60
2022/12/04 12:46:18;;;;;;;105.23;53.00;;;;;;;;;;730045;177;1246714;-81
2022/12/04 12:48:45;;;;;;;76.80;44.60;;;;;;;;;;781556;179;636177;-81
2022/12/04 12:51:15;;;;;;;113.67;54.83;;;;;;;;;;767864;179;645435;-82
2022/12/04 12:53:43;;;;;;;179.55;100.93;;;;;;;;;;770188;183;750289;-79
2022/12/04 12:56:09;;;;;;;128.80;57.73;;;;;;;;;;779552;177;650606;-82
2022/12/04 12:58:45;;;;;;;90.80;46.50;;;;;;;;;;766748;182;664228;-79
2022/12/04 13:01:12;;;;;;;100.30;53.80;;;;;;;;;;771122;179;641789;-79
2022/12/04 13:03:40;;;;;;;82.60;46.03;;;;;;;;;;766630;182;1378165;-79
2022/12/04 13:06:06;;;;;;;91.37;50.70;;;;;;;;;;775451;182;615521;-81
2022/12/04 13:08:33;;;;;;;103.70;55.03;;;;;;;;;;771385;182;687069;-79
2022/12/04 13:11:03;;;;;;;88.37;48.77;;;;;;;;;;777368;179;643835;-82
2022/12/04 13:13:30;;;;;;;82.90;46.10;;;;;;;;;;774680;182;685950;-80
2022/12/04 13:15:56;;;;;;;91.73;46.97;;;;;;;;;;760347;184;632868;-79
2022/12/04 13:18:26;;;;;;;104.90;54.57;;;;;;;;;;761464;183;633542;-79
2022/12/04 13:20:51;;;;;;;95.82;51.65;;;;;;;;;;763042;183;642696;-78
2022/12/04 13:23:18;;;;;;;99.27;54.10;;;;;;;;;;774151;182;653653;-80
2022/12/04 13:25:48;;;;;;;437.23;244.23;;;;;;;;;;771793;182;632254;-79
2022/12/04 13:28:35;;;;;;;258.97;123.27;;;;;;;;;;770636;181;633772;-80
2022/12/04 13:31:05;;;;;;;271.97;122.10;;;;;;;;;;773822;179;1121312;-79
2022/12/04 13:33:46;;;;;;;141.87;70.70;;;;;;;;;;767617;182;660170;-80
2022/12/04 13:36:25;;;;;;;141.20;68.50;;;;;;;;;;770371;180;638444;-79
2022/12/04 13:38:52;;;;;;;131.47;66.87;;;;;;;;;;774106;182;631671;-81
2022/12/04 13:41:18;;;;;;;110.73;58.10;;;;;;;;;;780104;179;704552;-81
2022/12/04 13:43:44;;;;;;;95.30;49.67;;;;;;;;;;772167;180;635268;-81
2022/12/04 13:46:16;;;;;;;95.87;50.40;;;;;;;;;;772045;182;645069;-81
2022/12/04 13:48:42;;;;;;;97.63;47.57;;;;;;;;;;773115;182;672104;-81
2022/12/04 13:51:27;;;;;;;116.07;58.07;;;;;;;;;;776297;182;671846;-81
2022/12/04 13:53:59;;;;;;;162.13;74.40;;;;;;;;;;773121;182;636326;-81
2022/12/04 13:56:25;;;;;;;152.53;72.73;;;;;;;;;;772139;182;722506;-81
2022/12/04 13:58:57;;;;;;;187.97;95.07;;;;;;;;;;768178;182;632828;-80
2022/12/04 14:01:23;;;;;;;100.93;50.20;;;;;;;;;;772458;182;631086;-81
2022/12/04 14:03:49;;;;;;;561.30;281.60;;;;;;;;;;777312;182;650112;-80
2022/12/04 14:06:15;;;;;;;160.20;76.20;;;;;;;;;;773093;179;617324;-80
2022/12/04 14:08:41;;;;;;;109.27;47.67;;;;;;;;;;770975;183;642490;-83